createdAt,value
2023-04-26T00:00:17.592Z,100.00
2023-04-26T00:02:50.599Z,100.00
2023-04-26T00:05:24.647Z,100.00
2023-04-26T00:07:57.882Z,100.00
2023-04-26T00:10:30.921Z,100.00
2023-04-26T00:13:03.220Z,100.00
2023-04-26T00:15:36.664Z,100.00
2023-04-26T00:18:08.956Z,100.00
2023-04-26T00:20:41.391Z,100.00
2023-04-26T00:23:13.666Z,100.00
2023-04-26T00:25:45.995Z,100.00
2023-04-26T00:28:18.369Z,100.00
2023-04-26T00:30:51.594Z,100.00
2023-04-26T00:33:23.960Z,100.00
2023-04-26T00:35:56.330Z,100.00
2023-04-26T00:38:28.613Z,100.00
2023-04-26T00:41:00.922Z,100.00
2023-04-26T00:43:33.198Z,100.00
2023-04-26T00:46:06.659Z,100.00
2023-04-26T00:48:39.128Z,100.00
2023-04-26T00:51:12.423Z,100.00
2023-04-26T00:53:44.736Z,100.00
2023-04-26T00:56:17.461Z,100.00
2023-04-26T00:58:51.211Z,100.00
2023-04-26T01:01:24.542Z,100.00
2023-04-26T01:03:57.159Z,100.00
2023-04-26T01:06:33.807Z,100.00
2023-04-26T01:09:09.325Z,100.00
2023-04-26T01:11:43.032Z,100.00
2023-04-26T01:14:15.612Z,100.00
2023-04-26T01:16:50.223Z,100.00
2023-04-26T01:19:22.714Z,100.00
2023-04-26T01:21:55.604Z,100.00
2023-04-26T01:24:28.680Z,100.00
2023-04-26T01:27:03.430Z,100.00
2023-04-26T01:29:35.989Z,100.00
2023-04-26T01:32:09.691Z,100.00
2023-04-26T01:34:42.031Z,100.00
2023-04-26T01:37:16.359Z,100.00
2023-04-26T01:39:49.350Z,100.00
2023-04-26T01:42:21.830Z,100.00
2023-04-26T01:44:54.143Z,100.00
2023-04-26T01:47:27.819Z,100.00
2023-04-26T01:50:00.331Z,100.00
2023-04-26T01:52:32.991Z,100.00
2023-04-26T01:55:07.579Z,100.00
2023-04-26T01:57:39.948Z,100.00
2023-04-26T02:00:12.793Z,100.00
2023-04-26T02:02:47.771Z,100.00
2023-04-26T02:05:20.361Z,100.00
2023-04-26T02:07:52.743Z,100.00
2023-04-26T02:10:26.127Z,100.00
2023-04-26T02:12:58.582Z,100.00
2023-04-26T02:15:30.974Z,100.00
2023-04-26T02:18:03.520Z,100.00
2023-04-26T02:20:37.246Z,100.00
2023-04-26T02:23:09.893Z,100.00
2023-04-26T02:25:45.936Z,100.00
2023-04-26T02:28:18.299Z,100.00
2023-04-26T02:30:50.929Z,100.00
2023-04-26T02:33:24.388Z,100.00
2023-04-26T02:35:57.189Z,100.00
2023-04-26T02:38:29.613Z,100.00
2023-04-26T02:41:04.251Z,100.00
2023-04-26T02:43:37.082Z,100.00
2023-04-26T02:46:09.488Z,100.00
2023-04-26T02:48:41.859Z,100.00
2023-04-26T02:51:14.146Z,100.00
2023-04-26T02:53:46.478Z,100.00
2023-04-26T02:56:19.981Z,100.00
2023-04-26T02:58:52.502Z,100.00
2023-04-26T03:01:25.290Z,100.00
2023-04-26T03:03:57.843Z,100.00
2023-04-26T03:06:30.280Z,100.00
2023-04-26T03:09:04.877Z,100.00
2023-04-26T03:11:38.038Z,100.00
2023-04-26T03:14:10.419Z,100.00
2023-04-26T03:16:43.952Z,100.00
2023-04-26T03:19:16.394Z,100.00
2023-04-26T03:21:49.194Z,100.00
2023-04-26T03:24:22.967Z,100.00
2023-04-26T03:26:57.237Z,100.00
2023-04-26T03:29:30.020Z,100.00
2023-04-26T03:32:02.406Z,100.00
2023-04-26T03:34:34.724Z,100.00
2023-04-26T03:37:07.100Z,100.00
2023-04-26T03:39:39.520Z,100.00
2023-04-26T03:42:12.565Z,100.00
2023-04-26T03:44:45.181Z,100.00
2023-04-26T03:47:17.577Z,100.00
2023-04-26T03:49:50.045Z,100.00
2023-04-26T03:52:22.477Z,100.00
2023-04-26T03:54:54.914Z,100.00
2023-04-26T03:57:28.636Z,100.00
2023-04-26T04:00:01.782Z,100.00
2023-04-26T04:02:34.253Z,100.00
2023-04-26T04:05:07.916Z,100.00
2023-04-26T04:07:40.455Z,100.00
2023-04-26T04:10:12.864Z,100.00
2023-04-26T04:12:47.218Z,100.00
2023-04-26T04:15:21.043Z,100.00
2023-04-26T04:17:54.572Z,100.00
2023-04-26T04:20:27.085Z,100.00
2023-04-26T04:23:03.645Z,100.00
2023-04-26T04:25:36.070Z,100.00
2023-04-26T04:28:13.908Z,100.00
2023-04-26T04:30:46.627Z,100.00
2023-04-26T04:33:19.554Z,100.00
2023-04-26T04:35:52.135Z,100.00
2023-04-26T04:38:24.845Z,100.00
2023-04-26T04:40:58.169Z,100.00
2023-04-26T04:43:31.314Z,100.00
2023-04-26T04:46:04.012Z,100.00
2023-04-26T04:48:38.167Z,100.00
2023-04-26T04:51:11.319Z,100.00
2023-04-26T04:53:43.945Z,100.00
2023-04-26T04:56:17.713Z,100.00
2023-04-26T04:58:50.974Z,100.00
2023-04-26T05:01:24.668Z,100.00
2023-04-26T05:04:01.516Z,100.00
2023-04-26T05:06:34.298Z,100.00
2023-04-26T05:09:06.758Z,100.00
2023-04-26T05:11:39.845Z,100.00
2023-04-26T05:14:14.751Z,100.00
2023-04-26T05:16:48.032Z,100.00
2023-04-26T05:19:20.580Z,100.00
2023-04-26T05:21:53.123Z,100.00
2023-04-26T05:24:25.820Z,100.00
2023-04-26T05:26:58.807Z,100.00
2023-04-26T05:29:34.264Z,100.00
2023-04-26T05:32:12.087Z,100.00
2023-04-26T05:35:13.892Z,100.00
2023-04-26T05:37:46.294Z,100.00
2023-04-26T05:40:19.777Z,100.00
2023-04-26T05:42:52.467Z,100.00
2023-04-26T05:45:26.468Z,100.00
2023-04-26T05:47:58.935Z,100.00
2023-04-26T05:50:32.005Z,100.00
2023-04-26T05:53:04.489Z,100.00
2023-04-26T05:55:36.952Z,100.00
2023-04-26T05:58:09.986Z,100.00
2023-04-26T06:00:43.797Z,100.00
2023-04-26T06:03:16.518Z,100.00
2023-04-26T06:05:49.140Z,100.00
2023-04-26T06:08:21.708Z,100.00
2023-04-26T06:10:55.248Z,99.46
2023-04-26T06:13:27.526Z,100.00
2023-04-26T06:16:00.999Z,100.00
2023-04-26T06:18:33.542Z,100.00
2023-04-26T06:21:06.274Z,100.00
2023-04-26T06:23:38.782Z,97.36
2023-04-26T06:26:11.194Z,100.00
2023-04-26T06:28:44.200Z,100.00
2023-04-26T06:31:17.386Z,97.97
2023-04-26T06:33:50.465Z,91.99
2023-04-26T06:36:23.671Z,95.70
2023-04-26T06:38:56.450Z,94.27
2023-04-26T06:41:28.728Z,96.58
2023-04-26T06:44:01.451Z,94.83
2023-04-26T06:46:37.612Z,92.66
2023-04-26T06:49:10.736Z,92.55
2023-04-26T06:51:43.837Z,91.87
2023-04-26T06:54:16.114Z,93.86
2023-04-26T06:56:48.447Z,87.74
2023-04-26T06:59:20.799Z,86.04
2023-04-26T07:01:53.980Z,88.09
2023-04-26T07:04:26.654Z,82.13
2023-04-26T07:06:59.197Z,82.81
2023-04-26T07:09:31.581Z,83.02
2023-04-26T07:12:04.597Z,78.10
2023-04-26T07:14:39.913Z,79.04
2023-04-26T07:17:12.903Z,73.50
2023-04-26T07:19:45.200Z,75.11
2023-04-26T07:22:17.631Z,76.59
2023-04-26T07:24:50.052Z,76.26
2023-04-26T07:27:22.756Z,73.33
2023-04-26T07:29:55.603Z,73.97
2023-04-26T07:32:28.805Z,74.78
2023-04-26T07:35:01.834Z,75.38
2023-04-26T07:37:34.578Z,71.52
2023-04-26T07:40:09.763Z,75.48
2023-04-26T07:42:42.164Z,72.79
2023-04-26T07:45:15.178Z,74.52
2023-04-26T07:47:48.222Z,73.61
2023-04-26T07:50:20.809Z,72.99
2023-04-26T07:52:53.166Z,72.29
2023-04-26T07:55:25.791Z,71.77
2023-04-26T07:57:58.316Z,71.50
2023-04-26T08:00:30.690Z,72.34
2023-04-26T08:03:03.895Z,72.13
2023-04-26T08:05:36.527Z,71.84
2023-04-26T08:08:09.160Z,72.77
2023-04-26T08:10:41.972Z,73.72
2023-04-26T08:13:14.278Z,71.13
2023-04-26T08:15:46.893Z,71.28
2023-04-26T08:18:19.916Z,72.34
2023-04-26T08:20:54.489Z,69.36
2023-04-26T08:23:27.671Z,66.90
2023-04-26T08:25:59.996Z,68.26
2023-04-26T08:28:32.873Z,69.53
2023-04-26T08:31:05.478Z,70.58
2023-04-26T08:33:38.648Z,70.55
2023-04-26T08:36:12.085Z,69.51
2023-04-26T08:38:44.520Z,67.26
2023-04-26T08:41:23.811Z,68.72
2023-04-26T08:43:57.954Z,67.39
2023-04-26T08:46:34.325Z,65.71
2023-04-26T08:49:17.981Z,68.81
2023-04-26T08:51:52.272Z,66.70
2023-04-26T08:54:25.744Z,63.32
2023-04-26T08:56:59.515Z,62.48
2023-04-26T08:59:33.297Z,66.67
2023-04-26T09:02:07.453Z,65.67
2023-04-26T09:04:41.185Z,67.34
2023-04-26T09:07:20.611Z,61.94
2023-04-26T09:09:57.320Z,66.54
2023-04-26T09:12:29.944Z,65.24
2023-04-26T09:15:03.762Z,69.83
2023-04-26T09:17:38.314Z,70.31
2023-04-26T09:20:22.603Z,72.85
2023-04-26T09:23:04.368Z,70.88
2023-04-26T09:25:37.346Z,70.33
2023-04-26T09:28:20.524Z,71.85
2023-04-26T09:30:52.943Z,65.31
2023-04-26T09:33:25.446Z,64.96
2023-04-26T09:36:11.614Z,65.92
2023-04-26T09:38:43.977Z,66.53
2023-04-26T09:41:16.309Z,64.31
2023-04-26T09:43:50.911Z,59.39
2023-04-26T09:46:23.954Z,60.84
2023-04-26T09:49:02.938Z,62.25
2023-04-26T09:51:35.962Z,59.89
2023-04-26T09:54:08.304Z,61.13
2023-04-26T09:56:40.778Z,59.06
2023-04-26T09:59:13.118Z,60.66
2023-04-26T10:01:45.532Z,60.81
2023-04-26T10:04:17.934Z,62.56
2023-04-26T10:06:51.073Z,61.73
2023-04-26T10:09:23.508Z,60.61
2023-04-26T10:11:56.401Z,59.16
2023-04-26T10:14:29.709Z,61.13
2023-04-26T10:17:03.558Z,59.37
2023-04-26T10:19:37.210Z,59.71
2023-04-26T10:22:14.806Z,58.36
2023-04-26T10:24:48.935Z,59.14
2023-04-26T10:27:52.014Z,56.44
2023-04-26T10:30:24.335Z,55.53
2023-04-26T10:33:14.499Z,56.68
2023-04-26T10:36:07.963Z,61.79
2023-04-26T10:39:03.523Z,60.56
2023-04-26T10:41:39.159Z,55.98
2023-04-26T10:44:40.090Z,56.75
2023-04-26T10:47:28.208Z,59.19
2023-04-26T10:50:08.844Z,57.14
2023-04-26T10:53:05.234Z,55.10
2023-04-26T10:55:42.604Z,55.05
2023-04-26T10:58:28.915Z,55.45
2023-04-26T11:01:05.621Z,57.32
2023-04-26T11:03:38.441Z,57.82
2023-04-26T11:06:13.095Z,58.49
2023-04-26T11:08:47.820Z,59.59
2023-04-26T11:11:26.327Z,59.44
2023-04-26T11:14:01.842Z,52.65
2023-04-26T11:16:34.262Z,51.54
2023-04-26T11:19:06.658Z,52.43
2023-04-26T11:21:39.998Z,55.60
2023-04-26T11:24:15.027Z,59.54
2023-04-26T11:26:52.310Z,56.81
2023-04-26T11:29:25.288Z,54.07
2023-04-26T11:31:58.660Z,54.12
2023-04-26T11:34:35.816Z,53.12
2023-04-26T11:37:08.150Z,55.34
2023-04-26T11:39:40.489Z,53.07
2023-04-26T11:42:13.417Z,52.32
2023-04-26T11:44:45.757Z,52.15
2023-04-26T11:47:19.436Z,52.11
2023-04-26T11:49:51.937Z,50.02
2023-04-26T11:52:24.335Z,52.24
2023-04-26T11:55:03.204Z,51.49
2023-04-26T11:57:36.501Z,52.14
2023-04-26T12:00:14.258Z,55.95
2023-04-26T12:02:47.616Z,56.51
2023-04-26T12:05:24.811Z,55.11
2023-04-26T12:07:58.708Z,51.31
2023-04-26T12:10:34.683Z,51.42
2023-04-26T12:13:08.718Z,51.39
2023-04-26T12:15:41.049Z,51.98
2023-04-26T12:18:13.579Z,53.39
2023-04-26T12:20:46.369Z,48.94
2023-04-26T12:23:18.721Z,52.91
2023-04-26T12:25:55.862Z,50.49
2023-04-26T12:28:28.861Z,50.76
2023-04-26T12:31:03.365Z,50.94
2023-04-26T12:33:35.868Z,52.40
2023-04-26T12:36:09.220Z,51.19
2023-04-26T12:38:42.117Z,51.57
2023-04-26T12:41:14.394Z,52.64
2023-04-26T12:43:47.372Z,52.47
2023-04-26T12:46:19.865Z,49.64
2023-04-26T12:48:53.393Z,51.08
2023-04-26T12:51:26.256Z,50.38
2023-04-26T12:53:58.626Z,52.25
2023-04-26T12:56:30.950Z,52.22
2023-04-26T12:59:04.333Z,49.59
2023-04-26T13:01:36.689Z,48.69
2023-04-26T13:04:09.410Z,49.54
2023-04-26T13:06:41.885Z,51.25
2023-04-26T13:09:14.395Z,51.67
2023-04-26T13:11:46.741Z,50.66
2023-04-26T13:14:19.754Z,52.58
2023-04-26T13:16:53.154Z,53.83
2023-04-26T13:19:25.659Z,50.27
2023-04-26T13:21:57.967Z,55.25
2023-04-26T13:24:30.564Z,51.19
2023-04-26T13:27:03.022Z,54.53
2023-04-26T13:29:36.262Z,51.81
2023-04-26T13:32:08.638Z,49.95
2023-04-26T13:34:40.934Z,49.08
2023-04-26T13:37:13.884Z,49.52
2023-04-26T13:39:46.440Z,49.55
2023-04-26T13:42:18.746Z,49.58
2023-04-26T13:44:51.773Z,52.15
2023-04-26T13:47:24.160Z,50.91
2023-04-26T13:49:56.485Z,50.84
2023-04-26T13:52:28.845Z,50.17
2023-04-26T13:55:02.339Z,51.29
2023-04-26T13:57:35.346Z,51.00
2023-04-26T14:00:09.722Z,54.48
2023-04-26T14:02:45.218Z,51.63
2023-04-26T14:05:17.794Z,53.03
2023-04-26T14:07:50.236Z,53.22
2023-04-26T14:10:22.744Z,54.56
2023-04-26T14:12:55.713Z,54.43
2023-04-26T14:15:28.705Z,55.91
2023-04-26T14:18:01.714Z,54.10
2023-04-26T14:20:34.067Z,55.24
2023-04-26T14:23:06.436Z,54.18
2023-04-26T14:25:38.744Z,55.55
2023-04-26T14:28:11.823Z,54.18
2023-04-26T14:30:45.405Z,54.53
2023-04-26T14:33:17.764Z,53.04
2023-04-26T14:35:50.147Z,56.28
2023-04-26T14:38:22.424Z,54.46
2023-04-26T14:40:54.774Z,55.76
2023-04-26T14:43:27.044Z,56.69
2023-04-26T14:46:00.855Z,55.99
2023-04-26T14:48:33.203Z,59.01
2023-04-26T14:51:05.778Z,57.39
2023-04-26T14:53:38.422Z,58.43
2023-04-26T14:56:10.801Z,58.66
2023-04-26T14:58:43.085Z,61.77
2023-04-26T15:01:16.543Z,59.98
2023-04-26T15:03:49.021Z,61.31
2023-04-26T15:06:21.668Z,60.94
2023-04-26T15:08:54.078Z,62.17
2023-04-26T15:11:26.519Z,58.97
2023-04-26T15:13:58.809Z,61.43
2023-04-26T15:16:31.803Z,61.79
2023-04-26T15:19:04.150Z,62.05
2023-04-26T15:21:36.421Z,63.06
2023-04-26T15:24:08.963Z,64.22
2023-04-26T15:26:41.475Z,62.83
2023-04-26T15:29:13.858Z,64.63
2023-04-26T15:31:46.942Z,62.64
2023-04-26T15:34:19.789Z,67.50
2023-04-26T15:36:52.793Z,65.69
2023-04-26T15:39:25.081Z,65.22
2023-04-26T15:41:58.197Z,66.44
2023-04-26T15:44:30.576Z,68.41
2023-04-26T15:47:03.600Z,65.35
2023-04-26T15:49:35.944Z,65.22
2023-04-26T15:52:08.556Z,66.25
2023-04-26T15:54:41.045Z,67.27
2023-04-26T15:57:13.354Z,65.82
2023-04-26T15:59:45.681Z,66.75
2023-04-26T16:02:19.085Z,67.16
2023-04-26T16:04:51.805Z,66.00
2023-04-26T16:07:24.211Z,67.77
2023-04-26T16:09:56.503Z,68.19
2023-04-26T16:12:28.781Z,69.35
2023-04-26T16:15:01.565Z,70.97
2023-04-26T16:17:35.307Z,71.07
2023-04-26T16:20:09.505Z,70.83
2023-04-26T16:22:43.051Z,69.32
2023-04-26T16:25:16.611Z,71.10
2023-04-26T16:27:49.026Z,71.38
2023-04-26T16:30:21.527Z,70.60
2023-04-26T16:32:54.607Z,71.62
2023-04-26T16:35:26.936Z,71.68
2023-04-26T16:37:59.273Z,69.93
2023-04-26T16:40:31.617Z,72.50
2023-04-26T16:43:05.914Z,71.15
2023-04-26T16:45:40.991Z,71.35
2023-04-26T16:48:13.975Z,74.29
2023-04-26T16:50:46.320Z,73.67
2023-04-26T16:53:18.920Z,73.60
2023-04-26T16:55:51.568Z,72.11
2023-04-26T16:58:24.138Z,72.59
2023-04-26T17:00:56.533Z,69.95
2023-04-26T17:03:29.621Z,71.44
2023-04-26T17:06:02.048Z,72.34
2023-04-26T17:08:34.352Z,72.01
2023-04-26T17:11:07.136Z,72.12
2023-04-26T17:13:39.508Z,73.64
2023-04-26T17:16:11.908Z,71.90
2023-04-26T17:18:45.414Z,70.07
2023-04-26T17:21:17.701Z,69.50
2023-04-26T17:23:50.119Z,71.62
2023-04-26T17:26:22.398Z,71.66
2023-04-26T17:28:55.536Z,72.07
2023-04-26T17:31:27.971Z,71.68
2023-04-26T17:34:04.052Z,71.85
2023-04-26T17:36:37.089Z,69.68
2023-04-26T17:39:09.340Z,71.46
2023-04-26T17:41:41.594Z,69.59
2023-04-26T17:44:13.876Z,69.95
2023-04-26T17:46:46.127Z,70.41
2023-04-26T17:49:20.689Z,70.49
2023-04-26T17:51:52.967Z,71.41
2023-04-26T17:54:25.307Z,72.52
2023-04-26T17:56:57.817Z,72.37
2023-04-26T17:59:30.106Z,71.14
2023-04-26T18:02:02.369Z,71.80
2023-04-26T18:04:35.555Z,72.24
2023-04-26T18:07:08.086Z,69.94
2023-04-26T18:09:40.799Z,70.07
2023-04-26T18:12:13.096Z,68.65
2023-04-26T18:14:45.407Z,68.79
2023-04-26T18:17:17.900Z,71.50
2023-04-26T18:19:50.933Z,70.17
2023-04-26T18:22:23.273Z,70.82
2023-04-26T18:24:55.585Z,70.77
2023-04-26T18:27:27.881Z,70.57
2023-04-26T18:30:00.342Z,70.62
2023-04-26T18:32:33.207Z,71.15
2023-04-26T18:35:07.607Z,69.69
2023-04-26T18:37:40.507Z,70.72
2023-04-26T18:40:13.207Z,71.49
2023-04-26T18:42:45.529Z,71.86
2023-04-26T18:45:18.024Z,70.76
2023-04-26T18:47:50.726Z,71.35
2023-04-26T18:50:25.299Z,71.08
2023-04-26T18:52:57.623Z,70.43
2023-04-26T18:55:29.848Z,70.71
2023-04-26T18:58:02.167Z,70.46
2023-04-26T19:00:34.468Z,71.04
2023-04-26T19:03:06.884Z,71.00
2023-04-26T19:05:41.779Z,70.46
2023-04-26T19:08:14.124Z,70.28
2023-04-26T19:10:46.410Z,70.74
2023-04-26T19:13:19.062Z,71.74
2023-04-26T19:15:51.763Z,71.65
2023-04-26T19:18:24.173Z,71.21
2023-04-26T19:20:57.146Z,70.27
2023-04-26T19:23:29.426Z,71.00
2023-04-26T19:26:03.806Z,69.84
2023-04-26T19:28:36.862Z,67.65
2023-04-26T19:31:09.183Z,69.56
2023-04-26T19:33:41.477Z,68.09
2023-04-26T19:36:14.635Z,68.50
2023-04-26T19:38:47.746Z,70.04
2023-04-26T19:41:20.031Z,70.21
2023-04-26T19:43:52.339Z,72.23
2023-04-26T19:46:24.967Z,71.22
2023-04-26T19:48:57.305Z,69.76
2023-04-26T19:51:31.011Z,70.89
2023-04-26T19:54:03.567Z,71.90
2023-04-26T19:56:35.881Z,69.80
2023-04-26T19:59:08.920Z,71.40
2023-04-26T20:01:41.211Z,71.11
2023-04-26T20:04:13.706Z,69.21
2023-04-26T20:06:46.657Z,68.89
2023-04-26T20:09:18.974Z,70.45
2023-04-26T20:11:51.244Z,70.67
2023-04-26T20:14:23.815Z,70.73
2023-04-26T20:16:56.480Z,72.02
2023-04-26T20:19:28.862Z,72.04
2023-04-26T20:22:01.828Z,71.28
2023-04-26T20:24:34.081Z,71.52
2023-04-26T20:27:06.374Z,74.04
2023-04-26T20:29:38.681Z,74.18
2023-04-26T20:32:11.007Z,72.88
2023-04-26T20:34:43.306Z,73.87
2023-04-26T20:37:16.385Z,73.60
2023-04-26T20:39:48.732Z,74.64
2023-04-26T20:42:21.328Z,74.45
2023-04-26T20:44:53.635Z,74.90
2023-04-26T20:47:26.034Z,74.46
2023-04-26T20:49:58.383Z,74.45
2023-04-26T20:52:31.464Z,74.23
2023-04-26T20:55:04.406Z,74.47
2023-04-26T20:57:37.722Z,72.17
2023-04-26T21:00:10.731Z,71.17
2023-04-26T21:02:50.147Z,71.26
2023-04-26T21:05:23.408Z,71.80
2023-04-26T21:07:56.370Z,70.14
2023-04-26T21:10:28.656Z,71.14
2023-04-26T21:13:00.958Z,70.63
2023-04-26T21:15:33.440Z,70.75
2023-04-26T21:18:06.070Z,70.59
2023-04-26T21:20:38.377Z,71.69
2023-04-26T21:23:11.343Z,71.17
2023-04-26T21:25:44.972Z,68.76
2023-04-26T21:28:17.260Z,69.84
2023-04-26T21:30:49.523Z,68.93
2023-04-26T21:33:21.792Z,68.92
2023-04-26T21:35:54.074Z,69.82
2023-04-26T21:38:27.102Z,69.53
2023-04-26T21:40:59.342Z,68.05
2023-04-26T21:43:31.696Z,67.30
2023-04-26T21:46:04.174Z,66.96
2023-04-26T21:48:38.103Z,67.79
2023-04-26T21:51:10.405Z,68.68
2023-04-26T21:53:43.356Z,68.95
2023-04-26T21:56:15.772Z,67.84
2023-04-26T21:58:48.055Z,68.37
2023-04-26T22:01:20.585Z,67.96
2023-04-26T22:03:53.090Z,69.32
2023-04-26T22:06:25.421Z,70.17
2023-04-26T22:08:58.382Z,68.24
2023-04-26T22:11:30.694Z,68.43
2023-04-26T22:14:03.038Z,68.19
2023-04-26T22:16:35.583Z,67.96
2023-04-26T22:19:08.011Z,67.72
2023-04-26T22:21:40.388Z,68.07
2023-04-26T22:24:13.402Z,68.74
2023-04-26T22:26:45.740Z,69.91
2023-04-26T22:29:18.071Z,68.88
2023-04-26T22:31:50.423Z,68.91
2023-04-26T22:34:22.839Z,68.62
2023-04-26T22:36:59.115Z,67.53
2023-04-26T22:39:36.799Z,67.51
2023-04-26T22:42:09.068Z,66.88
2023-04-26T22:44:41.440Z,67.33
2023-04-26T22:47:13.920Z,66.72
2023-04-26T22:49:46.304Z,68.43
2023-04-26T22:52:28.348Z,65.93
2023-04-26T22:55:05.523Z,67.85
2023-04-26T22:57:37.864Z,66.38
2023-04-26T23:00:11.718Z,66.50
2023-04-26T23:02:44.037Z,66.91
2023-04-26T23:05:16.859Z,66.68
2023-04-26T23:07:49.203Z,66.25
2023-04-26T23:10:22.787Z,66.08
2023-04-26T23:12:55.042Z,66.10
2023-04-26T23:15:27.453Z,65.78
2023-04-26T23:18:00.315Z,64.63
2023-04-26T23:20:32.904Z,63.72
2023-04-26T23:23:05.238Z,64.67
2023-04-26T23:25:41.350Z,65.50
2023-04-26T23:28:13.717Z,62.86
2023-04-26T23:30:46.008Z,64.92
2023-04-26T23:33:18.361Z,63.43
2023-04-26T23:35:51.471Z,63.47
2023-04-26T23:38:23.840Z,63.10
2023-04-26T23:40:56.911Z,63.00
2023-04-26T23:43:29.199Z,63.62
2023-04-26T23:46:01.584Z,62.99
2023-04-26T23:48:33.920Z,64.18
2023-04-26T23:51:06.458Z,64.24
2023-04-26T23:53:38.934Z,64.09
2023-04-26T23:56:12.532Z,63.79
2023-04-26T23:58:45.007Z,65.93
